Aérodrome :
LOGIN :

S'inscrire | Disclaimer

   EN    FR    IT 

 










Légende :    VFR   VFR Marginal   IFR   IFR Intensif   IFR Très Intensif
Visi : 
Plafond : 
>= 8 km
>= 3000ft
5 à 8 km
1000 à 3000 ft
1500m à 5 km
500 à 1000 ft
800 à 1500m
200 à 500 ft
< 800m
< 200 ft
Symboles :   Orages  Brouillard  Fortes neiges  Fortes précipitations  Vent > 20 kt
SIGMETs :   Divers  Orages  Givrage  Turbulence  Onde Orograph.  Cendres Volcan.






- Altitude de l'aérodrome : 53 ft
- Code IATA : HRT


EGXU - RAF Linton-on-Ouse

DERNIER METAR :
  • 201020Z 25015KT 9999 SCT024 BKN048 08/06 Q0997 RMK WHT

METARs EXPIRÉS :
  • 200950Z AUTO 22023G34KT 4500 +RA FEW017/// BKN023/// 09/06 Q0997
  • 200935Z 21019KT 9999 RA OVC023 11/07 Q0996 RMK WHT
  • 200920Z 20018KT 9999 BKN024 BKN031 11/07 Q0996 RMK WHT
  • 200850Z 19020KT 9999 OVC024 11/06 Q0996 RMK WHT
  • 200820Z 19017G29KT 9999 OVC026 11/06 Q0997 RMK BLU
  • 200750Z 20020KT 9999 OVC026 11/06 Q0998 RMK BLU

TAF TAF EGXU
Valide du 20 à 09h jusqu'au 20 à 18h UTC


200801Z 2009/2018 20018G28KT 9999 BKN025
TEMPO 2009/2011 7000 RA BKN018
PROB30
TEMPO 2009/2011 27025G38KT 3000 +RA SCT010
BECMG 2011/2013 27018G28KT
TEMPO 2011/2013 SCT018
PROB30
TEMPO 2014/2017 4000 SHRASN SCT015



MET'MAP, la Météo Aéronautique d'un coup d'oeil ! - Copyright ORBIFLY Décembre 2007 - Disclaimer

ORBIFLY MET'MAP TEAM :

Programmation & Développement : Alexandra Zaïnal
Sur une idée originale de : Baudouin d'Aumeries
Assistance à la programmation : Marc-Olivier Méhu
Soutien technique & logistique : Manuel Goepfert

Contact : metmap@orbifly.com




SOURCES & CREDITS :

   NOAA